createdAt,value
2023-01-09T00:01:36.715Z,8.78
2023-01-09T00:04:04.531Z,8.67
2023-01-09T00:06:31.853Z,8.57
2023-01-09T00:08:58.947Z,8.65
2023-01-09T00:11:29.187Z,8.65
2023-01-09T00:13:56.112Z,8.57
2023-01-09T00:16:23.428Z,8.55
2023-01-09T00:18:50.825Z,8.56
2023-01-09T00:21:18.086Z,8.54
2023-01-09T00:23:47.175Z,8.55
2023-01-09T00:26:19.969Z,8.52
2023-01-09T00:28:49.072Z,8.59
2023-01-09T00:31:18.302Z,8.60
2023-01-09T00:34:01.665Z,8.75
2023-01-09T00:36:29.641Z,8.82
2023-01-09T00:38:57.309Z,8.73
2023-01-09T00:41:44.754Z,8.73
2023-01-09T00:44:30.215Z,8.79
2023-01-09T00:47:07.843Z,8.82
2023-01-09T00:49:37.717Z,8.79
2023-01-09T00:52:09.139Z,8.83
2023-01-09T00:54:37.400Z,8.73
2023-01-09T00:57:04.478Z,8.82
2023-01-09T00:59:32.859Z,8.77
2023-01-09T01:02:03.150Z,8.72
2023-01-09T01:04:49.579Z,8.79
2023-01-09T01:07:35.029Z,8.74
2023-01-09T01:10:02.264Z,8.80
2023-01-09T01:12:29.598Z,8.82
2023-01-09T01:14:56.579Z,8.79
2023-01-09T01:17:23.815Z,8.80
2023-01-09T01:19:50.763Z,8.78
2023-01-09T01:22:17.786Z,8.80
2023-01-09T01:24:45.179Z,8.84
2023-01-09T01:27:12.506Z,8.79
2023-01-09T01:29:39.561Z,8.86
2023-01-09T01:32:07.113Z,8.84
2023-01-09T01:34:34.714Z,8.88
2023-01-09T01:37:02.001Z,8.92
2023-01-09T01:39:29.087Z,8.92
2023-01-09T01:41:56.282Z,8.92
2023-01-09T01:45:12.823Z,8.96
2023-01-09T01:48:08.821Z,8.90
2023-01-09T01:50:48.637Z,8.81
2023-01-09T01:53:20.581Z,8.81
2023-01-09T01:56:14.535Z,8.75
2023-01-09T01:59:06.200Z,8.77
2023-01-09T02:01:34.554Z,8.74
2023-01-09T02:04:02.654Z,8.71
2023-01-09T02:06:31.099Z,8.83
2023-01-09T02:08:58.286Z,8.82
2023-01-09T02:11:25.449Z,8.87
2023-01-09T02:13:53.025Z,8.85
2023-01-09T02:16:33.268Z,8.90
2023-01-09T02:19:25.191Z,8.90
2023-01-09T02:22:27.739Z,8.90
2023-01-09T02:25:29.625Z,8.84
2023-01-09T02:28:25.051Z,8.89
2023-01-09T02:31:27.593Z,8.88
2023-01-09T02:34:26.479Z,8.91
2023-01-09T02:37:05.020Z,8.85
2023-01-09T02:39:43.936Z,8.84
2023-01-09T02:42:27.551Z,8.78
2023-01-09T02:44:54.721Z,8.77
2023-01-09T02:47:21.673Z,8.73
2023-01-09T02:49:56.360Z,8.70
2023-01-09T02:52:34.020Z,8.74
2023-01-09T02:55:45.581Z,8.74
2023-01-09T02:59:08.352Z,8.65
2023-01-09T03:02:02.765Z,8.66
2023-01-09T03:04:53.423Z,8.59
2023-01-09T03:08:04.544Z,8.65
2023-01-09T03:11:07.788Z,8.67
2023-01-09T03:13:56.621Z,8.65
2023-01-09T03:16:37.188Z,8.59
2023-01-09T03:19:11.779Z,8.53
2023-01-09T03:21:39.853Z,8.37
2023-01-09T03:24:07.084Z,8.19
2023-01-09T03:26:34.784Z,8.06
2023-01-09T03:29:02.369Z,7.93
2023-01-09T03:31:29.480Z,7.78
2023-01-09T03:33:56.807Z,7.66
2023-01-09T03:36:25.750Z,7.65
2023-01-09T03:38:52.900Z,7.59
2023-01-09T03:41:20.093Z,7.57
2023-01-09T03:43:48.667Z,7.63
2023-01-09T03:46:16.783Z,7.64
2023-01-09T03:48:44.925Z,7.61
2023-01-09T03:51:11.950Z,7.57
2023-01-09T03:53:39.964Z,7.52
2023-01-09T03:56:07.623Z,7.50
2023-01-09T03:58:34.586Z,7.58
2023-01-09T04:01:04.475Z,7.57
2023-01-09T04:03:33.818Z,7.57
2023-01-09T04:06:01.028Z,7.54
2023-01-09T04:08:29.488Z,7.46
2023-01-09T04:10:56.717Z,7.43
2023-01-09T04:13:24.128Z,7.41
2023-01-09T04:15:51.099Z,7.39
2023-01-09T04:18:18.165Z,7.42
2023-01-09T04:20:48.595Z,7.45
2023-01-09T04:23:16.596Z,7.38
2023-01-09T04:25:43.744Z,7.41
2023-01-09T04:28:10.638Z,7.38
2023-01-09T04:30:37.649Z,7.34
2023-01-09T04:33:05.401Z,7.42
2023-01-09T04:35:33.012Z,7.37
2023-01-09T04:38:00.916Z,7.33
2023-01-09T04:40:28.312Z,7.35
2023-01-09T04:42:56.974Z,7.31
2023-01-09T04:45:24.056Z,7.32
2023-01-09T04:47:51.088Z,7.30
2023-01-09T04:50:18.950Z,7.20
2023-01-09T04:52:45.944Z,7.17
2023-01-09T04:55:13.357Z,7.22
2023-01-09T04:57:40.405Z,7.21
2023-01-09T05:00:12.580Z,7.20
2023-01-09T05:02:43.206Z,7.20
2023-01-09T05:05:11.818Z,7.14
2023-01-09T05:07:39.313Z,7.08
2023-01-09T05:10:07.742Z,7.15
2023-01-09T05:12:36.370Z,7.13
2023-01-09T05:15:05.064Z,7.11
2023-01-09T05:17:32.420Z,7.07
2023-01-09T05:20:01.331Z,7.03
2023-01-09T05:22:28.983Z,6.98
2023-01-09T05:24:56.301Z,6.92
2023-01-09T05:27:23.436Z,6.86
2023-01-09T05:29:50.495Z,6.86
2023-01-09T05:32:19.056Z,6.81
2023-01-09T05:34:46.396Z,6.78
2023-01-09T05:37:13.767Z,6.81
2023-01-09T05:39:40.981Z,6.72
2023-01-09T05:42:07.986Z,6.74
2023-01-09T05:44:34.944Z,6.70
2023-01-09T05:47:02.985Z,6.68
2023-01-09T05:49:30.578Z,6.66
2023-01-09T05:51:59.684Z,6.69
2023-01-09T05:54:28.417Z,6.73
2023-01-09T05:56:55.949Z,6.78
2023-01-09T05:59:23.619Z,6.80
2023-01-09T06:01:51.054Z,6.80
2023-01-09T06:04:19.719Z,6.79
2023-01-09T06:06:46.703Z,6.74
2023-01-09T06:09:13.950Z,6.84
2023-01-09T06:11:41.055Z,6.75
2023-01-09T06:14:08.307Z,6.81
2023-01-09T06:16:35.282Z,6.83
2023-01-09T06:19:03.498Z,6.84
2023-01-09T06:21:30.583Z,6.77
2023-01-09T06:23:58.640Z,6.80
2023-01-09T06:26:27.027Z,6.83
2023-01-09T06:28:55.911Z,6.85
2023-01-09T06:31:24.767Z,6.83
2023-01-09T06:33:52.331Z,6.84
2023-01-09T06:36:22.227Z,6.82
2023-01-09T06:38:49.962Z,6.89
2023-01-09T06:41:17.403Z,6.85
2023-01-09T06:43:44.635Z,6.90
2023-01-09T06:46:11.777Z,6.91
2023-01-09T06:48:39.256Z,6.93
2023-01-09T06:51:06.376Z,6.90
2023-01-09T06:53:35.348Z,6.94
2023-01-09T06:56:02.865Z,6.91
2023-01-09T06:58:29.934Z,6.90
2023-01-09T07:00:59.448Z,6.88
2023-01-09T07:03:26.500Z,6.92
2023-01-09T07:05:54.092Z,6.83
2023-01-09T07:08:21.572Z,6.83
2023-01-09T07:10:48.627Z,6.78
2023-01-09T07:13:15.783Z,6.71
2023-01-09T07:15:42.764Z,6.67
2023-01-09T07:18:09.818Z,6.56
2023-01-09T07:20:40.849Z,6.53
2023-01-09T07:23:12.775Z,6.53
2023-01-09T07:25:42.422Z,6.43
2023-01-09T07:28:09.495Z,6.39
2023-01-09T07:30:37.111Z,6.39
2023-01-09T07:33:04.323Z,6.47
2023-01-09T07:35:32.333Z,6.42
2023-01-09T07:37:59.403Z,6.45
2023-01-09T07:40:27.209Z,6.39
2023-01-09T07:42:55.359Z,6.46
2023-01-09T07:45:22.352Z,6.54
2023-01-09T07:47:49.625Z,6.48
2023-01-09T07:50:16.896Z,6.46
2023-01-09T07:52:46.262Z,6.53
2023-01-09T07:55:15.003Z,6.53
2023-01-09T07:57:50.428Z,6.58
2023-01-09T08:00:23.985Z,6.67
2023-01-09T08:02:54.657Z,6.72
2023-01-09T08:05:24.956Z,6.72
2023-01-09T08:07:52.066Z,6.75
2023-01-09T08:10:20.394Z,6.76
2023-01-09T08:12:49.886Z,6.80
2023-01-09T08:15:19.912Z,6.79
2023-01-09T08:17:47.409Z,6.79
2023-01-09T08:20:17.277Z,6.85
2023-01-09T08:22:50.431Z,6.90
2023-01-09T08:25:18.468Z,6.92
2023-01-09T08:27:46.325Z,6.93
2023-01-09T08:30:14.190Z,6.94
2023-01-09T08:32:41.573Z,6.98
2023-01-09T08:35:10.059Z,7.02
2023-01-09T08:37:43.853Z,7.10
2023-01-09T08:40:15.800Z,7.13
2023-01-09T08:43:01.671Z,7.15
2023-01-09T08:45:47.640Z,7.15
2023-01-09T08:48:14.755Z,7.15
2023-01-09T08:50:42.204Z,7.14
2023-01-09T08:53:10.120Z,7.18
2023-01-09T08:55:37.072Z,7.19
2023-01-09T08:58:04.150Z,7.21
2023-01-09T09:00:34.315Z,7.21
2023-01-09T09:03:02.344Z,7.23
2023-01-09T09:05:31.643Z,7.21
2023-01-09T09:07:59.440Z,7.24
2023-01-09T09:10:29.069Z,7.29
2023-01-09T09:12:58.393Z,7.28
2023-01-09T09:15:29.707Z,7.32
2023-01-09T09:18:01.128Z,7.37
2023-01-09T09:20:37.084Z,7.46
2023-01-09T09:23:05.706Z,7.50
2023-01-09T09:25:33.012Z,7.54
2023-01-09T09:28:01.312Z,7.78
2023-01-09T09:30:28.813Z,7.73
2023-01-09T09:32:56.329Z,7.68
2023-01-09T09:35:23.528Z,7.68
2023-01-09T09:38:00.267Z,7.69
2023-01-09T09:40:50.401Z,7.70
2023-01-09T09:43:45.918Z,7.62
2023-01-09T09:46:25.555Z,7.72
2023-01-09T09:48:59.403Z,7.75
2023-01-09T09:51:33.461Z,7.82
2023-01-09T09:54:20.303Z,7.79
2023-01-09T09:56:58.294Z,7.84
2023-01-09T09:59:32.324Z,7.83
2023-01-09T10:02:24.223Z,7.81
2023-01-09T10:05:34.312Z,7.86
2023-01-09T10:08:44.457Z,7.85
2023-01-09T10:12:13.907Z,7.92
2023-01-09T10:14:41.285Z,7.91
2023-01-09T10:17:32.381Z,7.91
2023-01-09T10:20:27.333Z,7.93
2023-01-09T10:23:22.526Z,7.95
2023-01-09T10:26:01.829Z,8.00
2023-01-09T10:29:32.737Z,8.03
2023-01-09T10:32:14.795Z,8.04
2023-01-09T10:34:57.661Z,8.03
2023-01-09T10:37:46.639Z,8.03
2023-01-09T10:40:27.133Z,8.08
2023-01-09T10:43:04.419Z,8.16
2023-01-09T10:45:42.647Z,8.18
2023-01-09T10:48:32.170Z,8.23
2023-01-09T10:50:59.595Z,8.27
2023-01-09T10:53:40.158Z,8.17
2023-01-09T10:56:39.760Z,8.10
2023-01-09T10:59:10.140Z,8.01
2023-01-09T11:01:40.581Z,7.92
2023-01-09T11:04:36.067Z,7.84
2023-01-09T11:07:18.500Z,8.00
2023-01-09T11:10:08.360Z,8.11
2023-01-09T11:12:36.712Z,8.21
2023-01-09T11:15:29.227Z,8.36
2023-01-09T11:18:18.018Z,8.49
2023-01-09T11:20:45.970Z,8.37
2023-01-09T11:23:32.695Z,8.37
2023-01-09T11:26:02.701Z,8.32
2023-01-09T11:28:30.027Z,8.42
2023-01-09T11:31:04.420Z,8.37
2023-01-09T11:33:38.628Z,8.33
2023-01-09T11:36:15.917Z,8.31
2023-01-09T11:38:58.798Z,8.31
2023-01-09T11:41:35.139Z,8.27
2023-01-09T11:44:04.958Z,8.23
2023-01-09T11:46:44.465Z,8.15
2023-01-09T11:49:20.924Z,8.14
2023-01-09T11:52:19.730Z,8.10
2023-01-09T11:55:01.080Z,8.04
2023-01-09T11:57:28.400Z,7.97
2023-01-09T12:00:01.398Z,7.94
2023-01-09T12:02:59.524Z,7.87
2023-01-09T12:05:57.185Z,7.90
2023-01-09T12:08:41.125Z,7.96
2023-01-09T12:11:40.367Z,8.04
2023-01-09T12:14:19.388Z,8.05
2023-01-09T12:17:53.961Z,8.02
2023-01-09T12:20:48.298Z,8.01
2023-01-09T12:23:43.638Z,8.15
2023-01-09T12:26:15.733Z,8.27
2023-01-09T12:29:16.982Z,8.38
2023-01-09T12:31:46.690Z,8.40
2023-01-09T12:35:00.345Z,8.45
2023-01-09T12:37:47.348Z,8.47
2023-01-09T12:40:57.556Z,8.48
2023-01-09T12:43:46.609Z,8.38
2023-01-09T12:46:28.618Z,8.40
2023-01-09T12:49:31.121Z,8.45
2023-01-09T12:52:23.286Z,8.47
2023-01-09T12:55:13.041Z,8.53
2023-01-09T12:57:48.658Z,8.56
2023-01-09T13:00:32.285Z,8.50
2023-01-09T13:03:21.507Z,8.32
2023-01-09T13:05:54.418Z,8.39
2023-01-09T13:08:40.717Z,8.31
2023-01-09T13:11:20.387Z,8.32
2023-01-09T13:14:11.871Z,8.07
2023-01-09T13:16:46.771Z,7.93
2023-01-09T13:19:25.399Z,7.68
2023-01-09T13:21:53.839Z,7.72
2023-01-09T13:24:57.693Z,7.65
2023-01-09T13:27:31.370Z,7.58
2023-01-09T13:30:14.012Z,7.57
2023-01-09T13:33:31.553Z,7.54
2023-01-09T13:35:59.832Z,7.48
2023-01-09T13:38:30.932Z,7.37
2023-01-09T13:41:45.578Z,7.38
2023-01-09T13:44:20.316Z,7.35
2023-01-09T13:46:52.281Z,7.36
2023-01-09T13:50:01.481Z,7.45
2023-01-09T13:52:44.738Z,7.58
2023-01-09T13:55:11.607Z,7.82
2023-01-09T13:57:43.817Z,7.97
2023-01-09T14:00:14.848Z,8.01
2023-01-09T14:02:42.480Z,7.88
2023-01-09T14:05:16.037Z,8.09
2023-01-09T14:07:49.456Z,8.07
2023-01-09T14:10:27.992Z,8.02
2023-01-09T14:12:58.329Z,7.89
2023-01-09T14:15:40.457Z,7.85
2023-01-09T14:18:32.673Z,7.74
2023-01-09T14:21:01.237Z,7.73
2023-01-09T14:26:42.914Z,7.73
2023-01-09T14:29:31.331Z,7.70
2023-01-09T14:32:23.038Z,7.63
2023-01-09T14:35:21.595Z,7.60
2023-01-09T14:38:05.572Z,7.61
2023-01-09T14:40:36.038Z,7.59
2023-01-09T14:43:28.812Z,7.50
2023-01-09T14:46:05.193Z,7.51
2023-01-09T14:48:34.413Z,7.47
2023-01-09T14:51:05.582Z,7.41
2023-01-09T14:53:40.712Z,7.39
2023-01-09T14:56:31.866Z,7.35
2023-01-09T14:59:26.175Z,7.33
2023-01-09T15:01:58.154Z,7.36
2023-01-09T15:04:40.162Z,7.41
2023-01-09T15:07:19.768Z,7.34
2023-01-09T15:09:48.305Z,7.37
2023-01-09T15:12:24.534Z,7.31
2023-01-09T15:14:56.906Z,7.35
2023-01-09T15:17:35.558Z,7.16
2023-01-09T15:20:06.820Z,7.19
2023-01-09T15:22:37.502Z,7.32
2023-01-09T15:25:38.092Z,7.14
2023-01-09T15:28:32.326Z,7.02
2023-01-09T15:31:11.092Z,6.98
2023-01-09T15:33:40.753Z,6.98
2023-01-09T15:36:22.501Z,7.01
2023-01-09T15:38:52.138Z,6.95
2023-01-09T15:41:47.645Z,6.80
2023-01-09T15:44:30.316Z,6.75
2023-01-09T15:47:01.084Z,6.74
2023-01-09T15:49:28.909Z,6.62
2023-01-09T15:51:56.785Z,6.58
2023-01-09T15:54:31.342Z,6.58
2023-01-09T15:57:34.260Z,6.48
2023-01-09T16:00:41.477Z,6.42
2023-01-09T16:03:21.888Z,6.33
2023-01-09T16:06:06.520Z,6.37
2023-01-09T16:08:42.639Z,6.44
2023-01-09T16:11:39.210Z,6.39
2023-01-09T16:14:38.698Z,6.43
2023-01-09T16:17:16.563Z,6.45
2023-01-09T16:19:54.264Z,6.43
2023-01-09T16:22:32.879Z,6.39
2023-01-09T16:25:37.104Z,6.42
2023-01-09T16:28:27.282Z,6.46
2023-01-09T16:31:03.025Z,6.44
2023-01-09T16:33:31.598Z,6.40
2023-01-09T16:35:59.261Z,6.49
2023-01-09T16:38:27.529Z,6.51
2023-01-09T16:41:24.404Z,6.46
2023-01-09T16:43:52.108Z,6.53
2023-01-09T16:46:21.429Z,6.53
2023-01-09T16:48:49.677Z,6.55
2023-01-09T16:51:21.814Z,6.56
2023-01-09T16:53:49.906Z,6.47
2023-01-09T16:56:29.901Z,6.53
2023-01-09T16:58:58.303Z,6.49
2023-01-09T17:01:25.412Z,6.60
2023-01-09T17:03:52.719Z,6.63
2023-01-09T17:06:31.404Z,6.67
2023-01-09T17:08:59.447Z,6.61
2023-01-09T17:11:31.922Z,6.55
2023-01-09T17:14:00.705Z,6.48
2023-01-09T17:16:29.472Z,6.44
2023-01-09T17:18:56.957Z,6.37
2023-01-09T17:21:29.034Z,6.34
2023-01-09T17:24:15.670Z,6.27
2023-01-09T17:27:05.400Z,6.33
2023-01-09T17:29:34.598Z,6.25
2023-01-09T17:32:02.112Z,6.19
2023-01-09T17:34:29.104Z,6.25
2023-01-09T17:36:56.340Z,6.29
2023-01-09T17:39:23.747Z,6.17
2023-01-09T17:41:50.993Z,6.14
2023-01-09T17:44:18.142Z,6.20
2023-01-09T17:46:45.433Z,6.18
2023-01-09T17:49:21.474Z,6.15
2023-01-09T17:51:50.733Z,6.07
2023-01-09T17:54:21.407Z,6.13
2023-01-09T17:56:51.145Z,6.06
2023-01-09T17:59:18.463Z,6.07
2023-01-09T18:01:45.908Z,6.09
2023-01-09T18:04:13.065Z,6.16
2023-01-09T18:06:40.545Z,6.17
2023-01-09T18:09:13.568Z,6.16
2023-01-09T18:11:41.126Z,6.16
2023-01-09T18:14:10.399Z,6.15
2023-01-09T18:16:38.048Z,6.18
2023-01-09T18:19:05.418Z,6.14
2023-01-09T18:21:32.941Z,6.16
2023-01-09T18:24:02.373Z,6.18
2023-01-09T18:26:29.713Z,6.18
2023-01-09T18:28:59.731Z,6.21
2023-01-09T18:31:30.455Z,6.17
2023-01-09T18:34:02.266Z,6.22
2023-01-09T18:36:30.241Z,6.17
2023-01-09T18:39:03.011Z,6.10
2023-01-09T18:41:31.881Z,6.15
2023-01-09T18:44:01.556Z,6.15
2023-01-09T18:46:32.708Z,6.10
2023-01-09T18:49:03.964Z,6.04
2023-01-09T18:51:33.714Z,5.99
2023-01-09T18:54:00.984Z,6.08
2023-01-09T18:56:28.234Z,6.13
2023-01-09T18:58:58.097Z,6.15
2023-01-09T19:01:30.462Z,6.10
2023-01-09T19:03:59.833Z,6.07
2023-01-09T19:06:29.422Z,6.13
2023-01-09T19:08:59.489Z,6.13
2023-01-09T19:11:28.052Z,6.24
2023-01-09T19:13:55.448Z,6.19
2023-01-09T19:16:22.870Z,6.22
2023-01-09T19:18:50.382Z,6.21
2023-01-09T19:21:23.673Z,6.22
2023-01-09T19:23:51.426Z,6.26
2023-01-09T19:26:21.619Z,6.23
2023-01-09T19:28:50.298Z,6.26
2023-01-09T19:31:19.138Z,6.26
2023-01-09T19:33:47.429Z,6.26
2023-01-09T19:36:14.887Z,6.19
2023-01-09T19:38:42.179Z,6.17
2023-01-09T19:41:20.970Z,6.20
2023-01-09T19:43:48.683Z,6.21
2023-01-09T19:46:19.999Z,6.30
2023-01-09T19:48:48.957Z,6.24
2023-01-09T19:51:19.763Z,6.30
2023-01-09T19:56:30.343Z,6.23
2023-01-09T19:59:05.275Z,6.30
2023-01-09T20:01:39.050Z,6.28
2023-01-09T20:04:13.699Z,6.27
2023-01-09T20:06:45.528Z,6.24
2023-01-09T20:09:15.543Z,6.26
2023-01-09T20:11:44.990Z,6.31
2023-01-09T20:14:14.725Z,6.29
2023-01-09T20:16:44.909Z,6.29
2023-01-09T20:19:13.121Z,6.26
2023-01-09T20:21:40.942Z,6.29
2023-01-09T20:24:17.069Z,6.31
2023-01-09T20:26:46.271Z,6.33
2023-01-09T20:29:13.402Z,6.29
2023-01-09T20:31:40.930Z,6.29
2023-01-09T20:34:08.244Z,6.30
2023-01-09T20:36:35.589Z,6.28
2023-01-09T20:39:06.010Z,6.25
2023-01-09T20:41:33.680Z,6.35
2023-01-09T20:44:08.066Z,6.39
2023-01-09T20:46:38.695Z,6.37
2023-01-09T20:49:08.989Z,6.38
2023-01-09T20:51:41.398Z,6.29
2023-01-09T20:54:09.159Z,6.27
2023-01-09T20:56:36.906Z,6.18
2023-01-09T20:59:06.283Z,6.21
2023-01-09T21:01:35.095Z,6.15
2023-01-09T21:04:03.186Z,6.14
2023-01-09T21:06:30.681Z,6.21
2023-01-09T21:08:58.102Z,6.27
2023-01-09T21:11:25.845Z,6.27
2023-01-09T21:13:53.260Z,6.16
2023-01-09T21:16:24.426Z,6.16
2023-01-09T21:18:53.421Z,6.20
2023-01-09T21:21:25.345Z,6.21
2023-01-09T21:23:56.388Z,6.22
2023-01-09T21:26:28.335Z,6.18
2023-01-09T21:28:58.791Z,6.13
2023-01-09T21:31:34.735Z,6.18
2023-01-09T21:34:07.830Z,6.13
2023-01-09T21:36:36.131Z,6.09
2023-01-09T21:39:08.147Z,6.24
2023-01-09T21:41:54.992Z,6.24
2023-01-09T21:44:41.114Z,6.23
2023-01-09T21:47:08.529Z,6.23
2023-01-09T21:49:39.277Z,6.22
2023-01-09T21:52:06.646Z,6.24
2023-01-09T21:54:34.348Z,6.26
2023-01-09T21:57:01.928Z,6.23
2023-01-09T21:59:29.180Z,6.14
2023-01-09T22:01:56.554Z,6.16
2023-01-09T22:04:26.860Z,6.19
2023-01-09T22:06:54.589Z,6.25
2023-01-09T22:09:21.939Z,6.18
2023-01-09T22:11:48.900Z,6.20
2023-01-09T22:14:19.084Z,6.16
2023-01-09T22:16:46.874Z,6.19
2023-01-09T22:19:17.965Z,6.22
2023-01-09T22:21:45.671Z,6.19
2023-01-09T22:24:18.833Z,6.07
2023-01-09T22:26:46.413Z,6.06
2023-01-09T22:29:14.377Z,6.07
